sensor_id;sensor_type;location;lat;lon;timestamp;pressure;altitude;pressure_sealevel;temperature;humidity
32081;BME280;18593;51.426;7.030;2023-02-28T00:00:27;101957.38;;;3.87;51.72
32081;BME280;18593;51.426;7.030;2023-02-28T00:02:56;101958.34;;;3.86;51.79
32081;BME280;18593;51.426;7.030;2023-02-28T00:05:24;101963.75;;;3.84;52.11
32081;BME280;18593;51.426;7.030;2023-02-28T00:07:52;101958.75;;;3.81;52.09
32081;BME280;18593;51.426;7.030;2023-02-28T00:10:20;101957.03;;;3.80;51.99
32081;BME280;18593;51.426;7.030;2023-02-28T00:12:48;101964.03;;;3.81;52.20
32081;BME280;18593;51.426;7.030;2023-02-28T00:15:16;101965.53;;;3.84;52.01
32081;BME280;18593;51.426;7.030;2023-02-28T00:17:43;101964.84;;;3.82;52.15
32081;BME280;18593;51.426;7.030;2023-02-28T00:20:13;101966.75;;;3.80;52.11
32081;BME280;18593;51.426;7.030;2023-02-28T00:22:41;101966.75;;;3.80;52.02
32081;BME280;18593;51.426;7.030;2023-02-28T00:25:09;101961.94;;;3.85;52.01
32081;BME280;18593;51.426;7.030;2023-02-28T00:27:37;101966.75;;;3.80;52.05
32081;BME280;18593;51.426;7.030;2023-02-28T00:30:08;101958.84;;;3.80;51.62
32081;BME280;18593;51.426;7.030;2023-02-28T00:32:36;101962.59;;;3.77;51.70
32081;BME280;18593;51.426;7.030;2023-02-28T00:35:05;101963.69;;;3.75;51.95
32081;BME280;18593;51.426;7.030;2023-02-28T00:37:33;101961.19;;;3.73;51.73
32081;BME280;18593;51.426;7.030;2023-02-28T00:40:01;101970.19;;;3.71;51.81
32081;BME280;18593;51.426;7.030;2023-02-28T00:42:30;101961.31;;;3.72;51.85
32081;BME280;18593;51.426;7.030;2023-02-28T00:44:57;101967.69;;;3.69;51.87
32081;BME280;18593;51.426;7.030;2023-02-28T00:47:24;101964.34;;;3.67;52.01
32081;BME280;18593;51.426;7.030;2023-02-28T00:49:51;101961.13;;;3.64;52.05
32081;BME280;18593;51.426;7.030;2023-02-28T00:52:18;101962.09;;;3.63;51.76
32081;BME280;18593;51.426;7.030;2023-02-28T00:54:46;101961.38;;;3.60;52.12
32081;BME280;18593;51.426;7.030;2023-02-28T00:57:14;101970.13;;;3.61;51.66
32081;BME280;18593;51.426;7.030;2023-02-28T00:59:41;101965.25;;;3.56;51.68
32081;BME280;18593;51.426;7.030;2023-02-28T01:02:08;101972.44;;;3.54;52.14
32081;BME280;18593;51.426;7.030;2023-02-28T01:04:36;101975.22;;;3.53;52.25
32081;BME280;18593;51.426;7.030;2023-02-28T01:07:03;101974.38;;;3.52;51.88
32081;BME280;18593;51.426;7.030;2023-02-28T01:09:30;101979.75;;;3.51;52.23
32081;BME280;18593;51.426;7.030;2023-02-28T01:11:59;101979.22;;;3.47;52.03
32081;BME280;18593;51.426;7.030;2023-02-28T01:14:26;101978.47;;;3.45;52.14
32081;BME280;18593;51.426;7.030;2023-02-28T01:16:53;101972.13;;;3.48;52.12
32081;BME280;18593;51.426;7.030;2023-02-28T01:19:20;101981.94;;;3.46;51.94
32081;BME280;18593;51.426;7.030;2023-02-28T01:21:46;101980.28;;;3.45;51.76
32081;BME280;18593;51.426;7.030;2023-02-28T01:24:13;101981.38;;;3.42;51.94
32081;BME280;18593;51.426;7.030;2023-02-28T01:26:40;101980.06;;;3.36;52.36
32081;BME280;18593;51.426;7.030;2023-02-28T01:29:09;101978.03;;;3.40;52.14
32081;BME280;18593;51.426;7.030;2023-02-28T01:31:36;101974.56;;;3.40;52.26
32081;BME280;18593;51.426;7.030;2023-02-28T01:34:03;101968.69;;;3.36;52.13
32081;BME280;18593;51.426;7.030;2023-02-28T01:36:30;101982.00;;;3.34;52.07
32081;BME280;18593;51.426;7.030;2023-02-28T01:38:57;101975.91;;;3.34;52.14
32081;BME280;18593;51.426;7.030;2023-02-28T01:41:28;101975.91;;;3.34;51.91
32081;BME280;18593;51.426;7.030;2023-02-28T01:44:00;101968.13;;;3.32;52.16
32081;BME280;18593;51.426;7.030;2023-02-28T01:46:32;101969.06;;;3.31;51.90
32081;BME280;18593;51.426;7.030;2023-02-28T01:49:06;101969.19;;;3.30;52.09
32081;BME280;18593;51.426;7.030;2023-02-28T01:51:39;101967.69;;;3.27;52.21
32081;BME280;18593;51.426;7.030;2023-02-28T01:54:13;101959.19;;;3.24;52.18
32081;BME280;18593;51.426;7.030;2023-02-28T01:56:44;101962.78;;;3.23;51.75
32081;BME280;18593;51.426;7.030;2023-02-28T01:59:13;101959.41;;;3.21;52.01
32081;BME280;18593;51.426;7.030;2023-02-28T02:01:43;101967.69;;;3.16;52.39
32081;BME280;18593;51.426;7.030;2023-02-28T02:04:10;101963.03;;;3.20;52.32
32081;BME280;18593;51.426;7.030;2023-02-28T02:06:39;101952.22;;;3.23;52.28
32081;BME280;18593;51.426;7.030;2023-02-28T02:09:09;101946.22;;;3.21;52.21
32081;BME280;18593;51.426;7.030;2023-02-28T02:11:37;101940.13;;;3.20;52.07
32081;BME280;18593;51.426;7.030;2023-02-28T02:17:16;101932.16;;;3.10;52.61
32081;BME280;18593;51.426;7.030;2023-02-28T02:20:24;101931.31;;;3.10;52.45
32081;BME280;18593;51.426;7.030;2023-02-28T02:23:27;101927.47;;;3.14;52.05
32081;BME280;18593;51.426;7.030;2023-02-28T02:26:05;101930.94;;;3.15;52.14
32081;BME280;18593;51.426;7.030;2023-02-28T02:29:00;101922.06;;;3.16;51.95
32081;BME280;18593;51.426;7.030;2023-02-28T02:32:06;101923.84;;;3.15;52.08
32081;BME280;18593;51.426;7.030;2023-02-28T02:34:42;101934.63;;;3.12;51.97
32081;BME280;18593;51.426;7.030;2023-02-28T02:37:28;101934.91;;;3.09;52.09
32081;BME280;18593;51.426;7.030;2023-02-28T02:40:02;101931.00;;;3.03;52.14
32081;BME280;18593;51.426;7.030;2023-02-28T02:42:36;101934.84;;;2.99;52.17
32081;BME280;18593;51.426;7.030;2023-02-28T02:45:07;101932.34;;;2.98;52.05
32081;BME280;18593;51.426;7.030;2023-02-28T02:47:36;101927.31;;;2.95;52.24
32081;BME280;18593;51.426;7.030;2023-02-28T02:50:08;101929.94;;;2.95;52.16
32081;BME280;18593;51.426;7.030;2023-02-28T02:52:39;101937.00;;;2.94;52.30
32081;BME280;18593;51.426;7.030;2023-02-28T02:55:08;101930.91;;;2.94;52.02
32081;BME280;18593;51.426;7.030;2023-02-28T02:57:40;101931.16;;;2.91;52.26
32081;BME280;18593;51.426;7.030;2023-02-28T03:00:10;101938.81;;;2.94;52.33
32081;BME280;18593;51.426;7.030;2023-02-28T03:02:38;101937.09;;;2.93;52.09
32081;BME280;18593;51.426;7.030;2023-02-28T03:05:12;101937.25;;;2.91;51.84
32081;BME280;18593;51.426;7.030;2023-02-28T03:07:41;101936.78;;;2.86;52.09
32081;BME280;18593;51.426;7.030;2023-02-28T03:10:29;101936.09;;;2.84;52.04
32081;BME280;18593;51.426;7.030;2023-02-28T03:13:05;101932.25;;;2.88;52.06
32081;BME280;18593;51.426;7.030;2023-02-28T03:15:38;101929.00;;;2.84;52.19
32081;BME280;18593;51.426;7.030;2023-02-28T03:18:10;101928.19;;;2.84;52.03
32081;BME280;18593;51.426;7.030;2023-02-28T03:20:45;101928.56;;;2.79;52.29
32081;BME280;18593;51.426;7.030;2023-02-28T03:23:21;101926.88;;;2.78;52.16
32081;BME280;18593;51.426;7.030;2023-02-28T03:25:56;101931.44;;;2.76;52.25
32081;BME280;18593;51.426;7.030;2023-02-28T03:28:29;101926.28;;;2.75;52.51
32081;BME280;18593;51.426;7.030;2023-02-28T03:30:59;101935.03;;;2.75;52.35
32081;BME280;18593;51.426;7.030;2023-02-28T03:33:31;101930.81;;;2.73;52.75
32081;BME280;18593;51.426;7.030;2023-02-28T03:36:02;101935.41;;;2.71;52.49
32081;BME280;18593;51.426;7.030;2023-02-28T03:38:33;101931.78;;;2.72;52.53
32081;BME280;18593;51.426;7.030;2023-02-28T03:41:05;101932.91;;;2.69;52.59
32081;BME280;18593;51.426;7.030;2023-02-28T03:43:34;101933.84;;;2.68;52.64
32081;BME280;18593;51.426;7.030;2023-02-28T03:46:07;101935.53;;;2.69;52.78
32081;BME280;18593;51.426;7.030;2023-02-28T03:48:39;101941.38;;;2.73;52.74
32081;BME280;18593;51.426;7.030;2023-02-28T03:51:10;101943.28;;;2.71;52.85
32081;BME280;18593;51.426;7.030;2023-02-28T03:53:42;101942.34;;;2.72;52.80
32081;BME280;18593;51.426;7.030;2023-02-28T03:56:13;101937.06;;;2.72;52.45
32081;BME280;18593;51.426;7.030;2023-02-28T03:58:43;101942.34;;;2.72;52.56
32081;BME280;18593;51.426;7.030;2023-02-28T04:01:14;101931.94;;;2.70;52.61
32081;BME280;18593;51.426;7.030;2023-02-28T04:03:42;101940.91;;;2.68;52.51
32081;BME280;18593;51.426;7.030;2023-02-28T04:06:15;101937.69;;;2.64;52.31
32081;BME280;18593;51.426;7.030;2023-02-28T04:08:43;101936.97;;;2.62;52.42
32081;BME280;18593;51.426;7.030;2023-02-28T04:11:16;101946.66;;;2.62;52.43
32081;BME280;18593;51.426;7.030;2023-02-28T04:13:45;101948.59;;;2.60;52.19
32081;BME280;18593;51.426;7.030;2023-02-28T04:16:12;101942.59;;;2.57;52.49
32081;BME280;18593;51.426;7.030;2023-02-28T04:18:39;101940.94;;;2.56;52.55
32081;BME280;18593;51.426;7.030;2023-02-28T04:21:06;101948.13;;;2.54;52.30
32081;BME280;18593;51.426;7.030;2023-02-28T04:23:35;101939.25;;;2.55;52.79
32081;BME280;18593;51.426;7.030;2023-02-28T04:26:02;101944.75;;;2.52;52.37
32081;BME280;18593;51.426;7.030;2023-02-28T04:28:29;101950.88;;;2.53;52.37
32081;BME280;18593;51.426;7.030;2023-02-28T04:30:56;101943.09;;;2.51;52.46
32081;BME280;18593;51.426;7.030;2023-02-28T04:33:24;101946.69;;;2.50;52.51
32081;BME280;18593;51.426;7.030;2023-02-28T04:35:58;101948.50;;;2.50;52.59
32081;BME280;18593;51.426;7.030;2023-02-28T04:38:25;101957.22;;;2.50;52.43
32081;BME280;18593;51.426;7.030;2023-02-28T04:40:53;101952.19;;;2.47;52.34
32081;BME280;18593;51.426;7.030;2023-02-28T04:43:20;101950.66;;;2.45;52.31
32081;BME280;18593;51.426;7.030;2023-02-28T04:45:47;101961.19;;;2.45;52.53
32081;BME280;18593;51.426;7.030;2023-02-28T04:48:14;101961.41;;;2.42;52.60
32081;BME280;18593;51.426;7.030;2023-02-28T04:50:41;101967.53;;;2.42;52.55
32081;BME280;18593;51.426;7.030;2023-02-28T04:53:08;101961.28;;;2.43;52.29
32081;BME280;18593;51.426;7.030;2023-02-28T04:55:35;101959.75;;;2.41;52.42
32081;BME280;18593;51.426;7.030;2023-02-28T04:58:03;101958.91;;;2.40;52.21
32081;BME280;18593;51.426;7.030;2023-02-28T05:00:30;101965.16;;;2.39;52.46
32081;BME280;18593;51.426;7.030;2023-02-28T05:02:57;101961.66;;;2.39;52.29
32081;BME280;18593;51.426;7.030;2023-02-28T05:05:24;101962.75;;;2.36;52.31
32081;BME280;18593;51.426;7.030;2023-02-28T05:07:51;101961.06;;;2.35;52.25
32081;BME280;18593;51.426;7.030;2023-02-28T05:10:19;101954.00;;;2.36;52.20
32081;BME280;18593;51.426;7.030;2023-02-28T05:12:46;101969.91;;;2.34;52.33
32081;BME280;18593;51.426;7.030;2023-02-28T05:15:15;101970.88;;;2.33;52.27
32081;BME280;18593;51.426;7.030;2023-02-28T05:17:42;101965.03;;;2.29;52.49
32081;BME280;18593;51.426;7.030;2023-02-28T05:20:10;101973.75;;;2.30;52.46
32081;BME280;18593;51.426;7.030;2023-02-28T05:22:39;101969.56;;;2.27;52.46
32081;BME280;18593;51.426;7.030;2023-02-28T05:25:08;101973.88;;;2.28;52.37
32081;BME280;18593;51.426;7.030;2023-02-28T05:27:36;101980.22;;;2.26;52.57
32081;BME280;18593;51.426;7.030;2023-02-28T05:30:05;101977.59;;;2.26;52.45
32081;BME280;18593;51.426;7.030;2023-02-28T05:32:33;101972.41;;;2.24;52.27
32081;BME280;18593;51.426;7.030;2023-02-28T05:35:01;101974.97;;;2.26;52.35
32081;BME280;18593;51.426;7.030;2023-02-28T05:37:28;101976.84;;;2.24;52.28
32081;BME280;18593;51.426;7.030;2023-02-28T05:39:54;101974.22;;;2.24;52.20
32081;BME280;18593;51.426;7.030;2023-02-28T05:42:21;101985.00;;;2.21;52.59
32081;BME280;18593;51.426;7.030;2023-02-28T05:44:48;101986.91;;;2.19;52.23
32081;BME280;18593;51.426;7.030;2023-02-28T05:47:15;101991.47;;;2.17;52.45
32081;BME280;18593;51.426;7.030;2023-02-28T05:49:44;101987.16;;;2.16;52.39
32081;BME280;18593;51.426;7.030;2023-02-28T05:52:10;101989.66;;;2.17;52.07
32081;BME280;18593;51.426;7.030;2023-02-28T05:54:37;101991.69;;;2.14;52.46
32081;BME280;18593;51.426;7.030;2023-02-28T05:57:04;101995.50;;;2.10;52.38
32081;BME280;18593;51.426;7.030;2023-02-28T05:59:31;101995.63;;;2.08;52.35
32081;BME280;18593;51.426;7.030;2023-02-28T06:01:58;101992.28;;;2.06;52.57
32081;BME280;18593;51.426;7.030;2023-02-28T06:04:25;101997.44;;;2.08;52.38
32081;BME280;18593;51.426;7.030;2023-02-28T06:06:53;101996.72;;;2.05;52.57
32081;BME280;18593;51.426;7.030;2023-02-28T06:09:23;102003.78;;;2.05;52.54
32081;BME280;18593;51.426;7.030;2023-02-28T06:11:50;102004.72;;;2.04;52.58
32081;BME280;18593;51.426;7.030;2023-02-28T06:14:18;102010.81;;;2.04;52.67
32081;BME280;18593;51.426;7.030;2023-02-28T06:16:45;102011.69;;;2.05;52.56
32081;BME280;18593;51.426;7.030;2023-02-28T06:19:12;102002.09;;;2.04;52.81
32081;BME280;18593;51.426;7.030;2023-02-28T06:21:40;102019.44;;;2.06;52.46
32081;BME280;18593;51.426;7.030;2023-02-28T06:24:09;102023.13;;;2.04;52.63
32081;BME280;18593;51.426;7.030;2023-02-28T06:26:36;102028.28;;;2.05;52.57
32081;BME280;18593;51.426;7.030;2023-02-28T06:29:03;102024.44;;;2.10;52.66
32081;BME280;18593;51.426;7.030;2023-02-28T06:31:30;102026.50;;;2.06;52.40
32081;BME280;18593;51.426;7.030;2023-02-28T06:33:57;102023.03;;;2.05;52.51
32081;BME280;18593;51.426;7.030;2023-02-28T06:36:24;102020.41;;;2.05;52.83
32081;BME280;18593;51.426;7.030;2023-02-28T06:38:51;102024.72;;;2.06;52.52
32081;BME280;18593;51.426;7.030;2023-02-28T06:41:23;102021.34;;;2.04;52.42
32081;BME280;18593;51.426;7.030;2023-02-28T06:43:51;102023.38;;;2.01;52.76
32081;BME280;18593;51.426;7.030;2023-02-28T06:46:18;102032.13;;;2.01;52.73
32081;BME280;18593;51.426;7.030;2023-02-28T06:48:45;102027.56;;;2.03;52.86
32081;BME280;18593;51.426;7.030;2023-02-28T06:51:14;102031.16;;;2.02;53.03
32081;BME280;18593;51.426;7.030;2023-02-28T06:53:42;102023.25;;;2.02;52.98
32081;BME280;18593;51.426;7.030;2023-02-28T06:56:10;102026.00;;;2.01;53.50
32081;BME280;18593;51.426;7.030;2023-02-28T06:58:39;102033.78;;;2.02;53.29
32081;BME280;18593;51.426;7.030;2023-02-28T07:01:07;102029.47;;;2.01;53.47
32081;BME280;18593;51.426;7.030;2023-02-28T07:03:34;102033.06;;;2.00;53.76
32081;BME280;18593;51.426;7.030;2023-02-28T07:06:01;102033.06;;;2.00;53.64
32081;BME280;18593;51.426;7.030;2023-02-28T07:08:29;102032.94;;;2.02;53.69
32081;BME280;18593;51.426;7.030;2023-02-28T07:10:57;102043.97;;;2.07;53.68
32081;BME280;18593;51.426;7.030;2023-02-28T07:13:24;102043.84;;;2.09;53.82
32081;BME280;18593;51.426;7.030;2023-02-28T07:15:58;102036.56;;;2.12;53.68
32081;BME280;18593;51.426;7.030;2023-02-28T07:18:26;102040.28;;;2.21;53.53
32081;BME280;18593;51.426;7.030;2023-02-28T07:20:53;102038.22;;;2.24;53.25
32081;BME280;18593;51.426;7.030;2023-02-28T07:23:20;102040.16;;;2.22;53.50
32081;BME280;18593;51.426;7.030;2023-02-28T07:25:48;102053.78;;;2.27;53.54
32081;BME280;18593;51.426;7.030;2023-02-28T07:28:16;102045.75;;;2.29;53.52
32081;BME280;18593;51.426;7.030;2023-02-28T07:30:43;102047.47;;;2.30;53.46
32081;BME280;18593;51.426;7.030;2023-02-28T07:33:11;102051.50;;;2.34;53.67
32081;BME280;18593;51.426;7.030;2023-02-28T07:35:38;102058.00;;;2.41;53.26
32081;BME280;18593;51.426;7.030;2023-02-28T07:38:05;102054.41;;;2.42;53.10
32081;BME280;18593;51.426;7.030;2023-02-28T07:40:33;102054.19;;;2.45;53.04
32081;BME280;18593;51.426;7.030;2023-02-28T07:43:00;102048.28;;;2.53;52.93
32081;BME280;18593;51.426;7.030;2023-02-28T07:45:27;102051.53;;;2.56;52.94
32081;BME280;18593;51.426;7.030;2023-02-28T07:47:55;102051.19;;;2.61;52.81
32081;BME280;18593;51.426;7.030;2023-02-28T07:50:24;102049.25;;;2.63;52.46
32081;BME280;18593;51.426;7.030;2023-02-28T07:52:50;102048.19;;;2.66;52.51
32081;BME280;18593;51.426;7.030;2023-02-28T07:55:18;102050.47;;;2.70;52.40
32081;BME280;18593;51.426;7.030;2023-02-28T07:57:45;102056.56;;;2.71;52.27
32081;BME280;18593;51.426;7.030;2023-02-28T08:00:12;102052.88;;;2.73;52.35
32081;BME280;18593;51.426;7.030;2023-02-28T08:02:40;102056.34;;;2.74;52.23
32081;BME280;18593;51.426;7.030;2023-02-28T08:05:07;102059.66;;;2.76;52.51
32081;BME280;18593;51.426;7.030;2023-02-28T08:07:35;102066.59;;;2.77;52.22
32081;BME280;18593;51.426;7.030;2023-02-28T08:10:03;102062.78;;;2.81;52.45
32081;BME280;18593;51.426;7.030;2023-02-28T08:12:31;102058.59;;;2.78;52.54
32081;BME280;18593;51.426;7.030;2023-02-28T08:14:58;102069.00;;;2.80;52.83
32081;BME280;18593;51.426;7.030;2023-02-28T08:17:25;102076.91;;;2.80;52.74
32081;BME280;18593;51.426;7.030;2023-02-28T08:19:52;102073.19;;;2.82;52.71
32081;BME280;18593;51.426;7.030;2023-02-28T08:22:19;102074.75;;;2.85;52.62
32081;BME280;18593;51.426;7.030;2023-02-28T08:24:47;102070.19;;;2.87;52.70
32081;BME280;18593;51.426;7.030;2023-02-28T08:27:14;102067.31;;;2.90;52.25
32081;BME280;18593;51.426;7.030;2023-02-28T08:29:41;102069.25;;;2.88;52.17
32081;BME280;18593;51.426;7.030;2023-02-28T08:32:08;102065.38;;;2.92;51.98
32081;BME280;18593;51.426;7.030;2023-02-28T08:34:38;102055.69;;;2.93;52.12
32081;BME280;18593;51.426;7.030;2023-02-28T08:37:05;102061.56;;;2.96;52.25
32081;BME280;18593;51.426;7.030;2023-02-28T08:39:33;102054.94;;;3.02;52.40
32081;BME280;18593;51.426;7.030;2023-02-28T08:42:02;102052.78;;;3.07;51.87
32081;BME280;18593;51.426;7.030;2023-02-28T08:44:29;102059.84;;;3.06;52.00
32081;BME280;18593;51.426;7.030;2023-02-28T08:46:56;102061.56;;;3.07;51.78
32081;BME280;18593;51.426;7.030;2023-02-28T08:49:23;102054.59;;;3.06;51.33
32081;BME280;18593;51.426;7.030;2023-02-28T08:51:50;102055.41;;;3.07;51.29
32081;BME280;18593;51.426;7.030;2023-02-28T08:54:17;102062.38;;;3.08;50.30
32081;BME280;18593;51.426;7.030;2023-02-28T08:56:45;102063.94;;;3.10;50.75
32081;BME280;18593;51.426;7.030;2023-02-28T08:59:14;102060.47;;;3.10;50.80
32081;BME280;18593;51.426;7.030;2023-02-28T09:01:41;102055.41;;;3.07;49.98
32081;BME280;18593;51.426;7.030;2023-02-28T09:04:09;102054.38;;;2.98;48.58
32081;BME280;18593;51.426;7.030;2023-02-28T09:06:37;102049.09;;;2.87;49.66
32081;BME280;18593;51.426;7.030;2023-02-28T09:09:04;102053.78;;;2.95;49.33
32081;BME280;18593;51.426;7.030;2023-02-28T09:11:33;102052.69;;;2.97;49.60
32081;BME280;18593;51.426;7.030;2023-02-28T09:14:01;102055.78;;;3.02;49.54
32081;BME280;18593;51.426;7.030;2023-02-28T09:16:32;102047.41;;;2.97;48.25
32081;BME280;18593;51.426;7.030;2023-02-28T09:18:59;102044.53;;;3.00;49.25
32081;BME280;18593;51.426;7.030;2023-02-28T09:21:27;102045.97;;;3.04;48.60
32081;BME280;18593;51.426;7.030;2023-02-28T09:23:54;102054.03;;;3.03;48.54
32081;BME280;18593;51.426;7.030;2023-02-28T09:26:23;102043.59;;;2.90;47.60
32081;BME280;18593;51.426;7.030;2023-02-28T09:28:50;102050.53;;;3.02;48.47
32081;BME280;18593;51.426;7.030;2023-02-28T09:31:21;102054.34;;;3.09;48.21
32081;BME280;18593;51.426;7.030;2023-02-28T09:33:50;102051.59;;;3.11;47.41
32081;BME280;18593;51.426;7.030;2023-02-28T09:36:17;102045.34;;;3.12;47.52
32081;BME280;18593;51.426;7.030;2023-02-28T09:38:45;102049.31;;;3.18;47.71
32081;BME280;18593;51.426;7.030;2023-02-28T09:41:14;102048.44;;;3.17;47.24
32081;BME280;18593;51.426;7.030;2023-02-28T09:43:44;102047.38;;;3.20;46.36
32081;BME280;18593;51.426;7.030;2023-02-28T09:46:18;102046.69;;;3.18;46.43
32081;BME280;18593;51.426;7.030;2023-02-28T09:48:47;102046.78;;;3.16;45.90
32081;BME280;18593;51.426;7.030;2023-02-28T09:51:27;102040.66;;;3.16;45.47
32081;BME280;18593;51.426;7.030;2023-02-28T09:53:55;102042.47;;;3.15;45.53
32081;BME280;18593;51.426;7.030;2023-02-28T09:56:24;102044.75;;;3.20;45.48
32081;BME280;18593;51.426;7.030;2023-02-28T09:58:55;102048.66;;;3.25;45.44
32081;BME280;18593;51.426;7.030;2023-02-28T10:01:25;102050.34;;;3.26;45.64
32081;BME280;18593;51.426;7.030;2023-02-28T10:03:57;102042.19;;;3.29;45.32
32081;BME280;18593;51.426;7.030;2023-02-28T10:06:29;102037.16;;;3.26;45.10
32081;BME280;18593;51.426;7.030;2023-02-28T10:09:01;102038.84;;;3.27;44.92
32081;BME280;18593;51.426;7.030;2023-02-28T10:11:29;102032.34;;;3.31;45.56
32081;BME280;18593;51.426;7.030;2023-02-28T10:13:58;102029.22;;;3.38;44.94
32081;BME280;18593;51.426;7.030;2023-02-28T10:16:32;102030.16;;;3.36;44.85
32081;BME280;18593;51.426;7.030;2023-02-28T10:19:03;102030.81;;;3.29;43.96
32081;BME280;18593;51.426;7.030;2023-02-28T10:21:35;102025.78;;;3.26;43.54
32081;BME280;18593;51.426;7.030;2023-02-28T10:24:14;102039.59;;;3.18;43.63
32081;BME280;18593;51.426;7.030;2023-02-28T10:26:45;102027.72;;;3.24;44.02
32081;BME280;18593;51.426;7.030;2023-02-28T10:29:14;102033.00;;;3.24;43.63
32081;BME280;18593;51.426;7.030;2023-02-28T10:31:41;102026.63;;;3.26;43.68
32081;BME280;18593;51.426;7.030;2023-02-28T10:34:08;102029.38;;;3.25;43.50
32081;BME280;18593;51.426;7.030;2023-02-28T10:36:40;102030.22;;;3.25;43.13
32081;BME280;18593;51.426;7.030;2023-02-28T10:39:34;102035.34;;;3.27;43.30
32081;BME280;18593;51.426;7.030;2023-02-28T10:42:01;102016.78;;;3.28;42.65
32081;BME280;18593;51.426;7.030;2023-02-28T10:44:30;102026.03;;;3.23;42.78
32081;BME280;18593;51.426;7.030;2023-02-28T10:46:57;102031.66;;;3.29;42.56
32081;BME280;18593;51.426;7.030;2023-02-28T10:49:26;102012.34;;;3.29;42.32
32081;BME280;18593;51.426;7.030;2023-02-28T10:51:57;102021.25;;;3.28;42.31
32081;BME280;18593;51.426;7.030;2023-02-28T10:54:28;102020.41;;;3.27;41.77
32081;BME280;18593;51.426;7.030;2023-02-28T10:57:14;102019.16;;;3.31;42.21
32081;BME280;18593;51.426;7.030;2023-02-28T10:59:43;102014.47;;;3.35;42.28
32081;BME280;18593;51.426;7.030;2023-02-28T11:02:32;101993.16;;;3.38;42.09
32081;BME280;18593;51.426;7.030;2023-02-28T11:04:59;101996.25;;;3.43;41.69
32081;BME280;18593;51.426;7.030;2023-02-28T11:07:28;101992.88;;;3.41;40.97
32081;BME280;18593;51.426;7.030;2023-02-28T11:09:55;101995.41;;;3.43;41.76
32081;BME280;18593;51.426;7.030;2023-02-28T11:12:25;102001.91;;;3.39;40.83
32081;BME280;18593;51.426;7.030;2023-02-28T11:15:00;102002.88;;;3.38;41.28
32081;BME280;18593;51.426;7.030;2023-02-28T11:18:15;102005.22;;;3.41;41.12
32081;BME280;18593;51.426;7.030;2023-02-28T11:20:48;102024.66;;;3.40;40.99
32081;BME280;18593;51.426;7.030;2023-02-28T11:23:18;101996.63;;;3.39;40.48
32081;BME280;18593;51.426;7.030;2023-02-28T11:25:47;102001.16;;;3.36;40.82
32081;BME280;18593;51.426;7.030;2023-02-28T11:28:27;101998.28;;;3.40;41.17
32081;BME280;18593;51.426;7.030;2023-02-28T11:31:05;101994.13;;;3.37;40.90
32081;BME280;18593;51.426;7.030;2023-02-28T11:33:38;101992.78;;;3.43;41.16
32081;BME280;18593;51.426;7.030;2023-02-28T11:36:11;102002.09;;;3.47;41.34
32081;BME280;18593;51.426;7.030;2023-02-28T11:38:40;101991.28;;;3.50;41.34
32081;BME280;18593;51.426;7.030;2023-02-28T11:41:30;102004.59;;;3.48;41.24
32081;BME280;18593;51.426;7.030;2023-02-28T11:44:09;101999.50;;;3.35;41.08
32081;BME280;18593;51.426;7.030;2023-02-28T11:46:40;101995.06;;;3.36;41.24
32081;BME280;18593;51.426;7.030;2023-02-28T11:49:18;102009.66;;;3.40;41.66
32081;BME280;18593;51.426;7.030;2023-02-28T11:51:51;102001.38;;;3.45;41.24
32081;BME280;18593;51.426;7.030;2023-02-28T11:54:30;101990.97;;;3.43;41.25
32081;BME280;18593;51.426;7.030;2023-02-28T11:57:08;101994.19;;;3.47;41.20
32081;BME280;18593;51.426;7.030;2023-02-28T11:59:51;101994.66;;;3.52;41.50
32081;BME280;18593;51.426;7.030;2023-02-28T12:02:25;102006.59;;;3.56;41.09
32081;BME280;18593;51.426;7.030;2023-02-28T12:07:45;101994.50;;;3.53;41.54
32081;BME280;18593;51.426;7.030;2023-02-28T12:10:20;101990.91;;;3.54;41.70
32081;BME280;18593;51.426;7.030;2023-02-28T12:12:51;101996.03;;;3.56;41.85
32081;BME280;18593;51.426;7.030;2023-02-28T12:15:29;101989.44;;;3.61;42.00
32081;BME280;18593;51.426;7.030;2023-02-28T12:18:10;101975.72;;;3.68;41.75
32081;BME280;18593;51.426;7.030;2023-02-28T12:20:41;101979.06;;;3.70;41.86
32081;BME280;18593;51.426;7.030;2023-02-28T12:23:22;101972.81;;;3.71;41.28
32081;BME280;18593;51.426;7.030;2023-02-28T12:25:59;101956.75;;;3.74;41.69
32081;BME280;18593;51.426;7.030;2023-02-28T12:28:31;101956.34;;;3.78;41.59
32081;BME280;18593;51.426;7.030;2023-02-28T12:31:03;101947.78;;;3.86;41.67
32081;BME280;18593;51.426;7.030;2023-02-28T12:33:35;101946.53;;;3.90;41.76
32081;BME280;18593;51.426;7.030;2023-02-28T12:36:05;101939.88;;;3.86;41.42
32081;BME280;18593;51.426;7.030;2023-02-28T12:38:38;101942.00;;;3.92;41.48
32081;BME280;18593;51.426;7.030;2023-02-28T12:41:11;101942.69;;;3.94;40.74
32081;BME280;18593;51.426;7.030;2023-02-28T12:43:42;101934.91;;;3.93;40.42
32081;BME280;18593;51.426;7.030;2023-02-28T12:46:12;101927.13;;;3.91;40.88
32081;BME280;18593;51.426;7.030;2023-02-28T12:48:42;101937.41;;;3.94;41.15
32081;BME280;18593;51.426;7.030;2023-02-28T12:51:10;101928.25;;;3.98;41.52
32081;BME280;18593;51.426;7.030;2023-02-28T12:53:47;101924.09;;;3.96;40.90
32081;BME280;18593;51.426;7.030;2023-02-28T12:56:21;101919.38;;;3.99;41.07
32081;BME280;18593;51.426;7.030;2023-02-28T12:58:54;101924.78;;;3.98;41.19
32081;BME280;18593;51.426;7.030;2023-02-28T13:04:44;101916.72;;;3.99;41.04
32081;BME280;18593;51.426;7.030;2023-02-28T13:07:44;101902.28;;;4.03;41.36
32081;BME280;18593;51.426;7.030;2023-02-28T13:10:16;101898.69;;;4.04;41.53
32081;BME280;18593;51.426;7.030;2023-02-28T13:12:49;101901.91;;;4.08;41.52
32081;BME280;18593;51.426;7.030;2023-02-28T13:15:19;101896.88;;;4.05;41.55
32081;BME280;18593;51.426;7.030;2023-02-28T13:17:51;101886.47;;;4.03;41.38
32081;BME280;18593;51.426;7.030;2023-02-28T13:20:20;101896.63;;;4.08;41.91
32081;BME280;18593;51.426;7.030;2023-02-28T13:22:49;101888.56;;;4.09;41.58
32081;BME280;18593;51.426;7.030;2023-02-28T13:25:50;101886.78;;;4.10;41.52